createdAt,value
2022-08-25T00:01:27.009Z,101265.31
2022-08-25T00:03:55.825Z,101263.28
2022-08-25T00:06:24.090Z,101263.31
2022-08-25T00:08:51.225Z,101255.91
2022-08-25T00:11:23.972Z,101260.75
2022-08-25T00:13:58.318Z,101267.16
2022-08-25T00:16:26.207Z,101259.78
2022-08-25T00:18:56.714Z,101259.41
2022-08-25T00:21:24.824Z,101265.81
2022-08-25T00:23:51.656Z,101263.81
2022-08-25T00:26:19.321Z,101260.44
2022-08-25T00:28:45.963Z,101257.75
2022-08-25T00:31:15.267Z,101256.72
2022-08-25T00:33:43.824Z,101266.81
2022-08-25T00:36:12.453Z,101263.97
2022-08-25T00:38:44.744Z,101272.53
2022-08-25T00:41:14.241Z,101275.56
2022-08-25T00:43:40.742Z,101275.56
2022-08-25T00:46:09.478Z,101272.34
2022-08-25T00:48:38.685Z,101280.41
2022-08-25T00:51:09.615Z,101270.53
2022-08-25T00:53:36.619Z,101278.41
2022-08-25T00:56:03.687Z,101270.19
2022-08-25T00:58:34.318Z,101276.56
2022-08-25T01:01:01.444Z,101279.44
2022-08-25T01:03:35.557Z,101275.41
2022-08-25T01:06:05.178Z,101273.53
2022-08-25T01:08:32.633Z,101272.69
2022-08-25T01:11:02.621Z,101276.22
2022-08-25T01:13:34.472Z,101270.84
2022-08-25T01:16:02.015Z,101277.91
2022-08-25T01:18:29.047Z,101267.63
2022-08-25T01:20:57.177Z,101270.69
2022-08-25T01:23:24.756Z,101272.84
2022-08-25T01:26:01.751Z,101273.53
2022-08-25T01:28:28.570Z,101276.88
2022-08-25T01:30:55.305Z,101268.81
2022-08-25T01:33:23.277Z,101274.84
2022-08-25T01:35:50.111Z,101284.41
2022-08-25T01:38:16.841Z,101276.13
2022-08-25T01:40:44.073Z,101275.00
2022-08-25T01:43:10.704Z,101273.81
2022-08-25T01:45:39.956Z,101269.88
2022-08-25T01:48:07.638Z,101273.53
2022-08-25T01:50:34.499Z,101272.66
2022-08-25T01:53:08.569Z,101272.06
2022-08-25T01:55:51.688Z,101266.03
2022-08-25T01:58:27.904Z,101277.03
2022-08-25T02:00:57.232Z,101269.81
2022-08-25T02:03:25.821Z,101274.19
2022-08-25T02:05:53.760Z,101270.38
2022-08-25T02:08:21.920Z,101270.69
2022-08-25T02:10:49.249Z,101275.50
2022-08-25T02:13:16.778Z,101272.16
2022-08-25T02:15:46.435Z,101268.59
2022-08-25T02:18:13.078Z,101268.59
2022-08-25T02:20:39.782Z,101267.31
2022-08-25T02:23:06.361Z,101271.66
2022-08-25T02:25:33.808Z,101272.69
2022-08-25T02:28:00.801Z,101273.28
2022-08-25T02:30:27.570Z,101266.03
2022-08-25T02:32:54.190Z,101272.53
2022-08-25T02:35:21.454Z,101261.28
2022-08-25T02:37:48.023Z,101268.50
2022-08-25T02:40:14.715Z,101267.81
2022-08-25T02:42:42.717Z,101267.75
2022-08-25T02:45:09.527Z,101263.69
2022-08-25T02:47:37.146Z,101263.00
2022-08-25T02:50:07.950Z,101255.81
2022-08-25T02:52:35.613Z,101263.41
2022-08-25T02:55:04.871Z,101260.25
2022-08-25T02:57:31.924Z,101256.38
2022-08-25T02:59:59.021Z,101249.19
2022-08-25T03:02:27.834Z,101251.84
2022-08-25T03:04:55.071Z,101250.25
2022-08-25T03:07:21.991Z,101243.72
2022-08-25T03:09:51.456Z,101241.72
2022-08-25T03:12:18.023Z,101239.03
2022-08-25T03:14:44.608Z,101233.66
2022-08-25T03:17:11.285Z,101238.19
2022-08-25T03:19:37.869Z,101229.47
2022-08-25T03:22:04.638Z,101236.34
2022-08-25T03:24:31.614Z,101229.31
2022-08-25T03:26:58.211Z,101234.00
2022-08-25T03:29:33.008Z,101226.78
2022-08-25T03:32:00.634Z,101228.47
2022-08-25T03:34:29.815Z,101225.63
2022-08-25T03:36:57.141Z,101223.25
2022-08-25T03:39:25.905Z,101219.91
2022-08-25T03:41:53.176Z,101221.22
2022-08-25T03:44:21.104Z,101228.41
2022-08-25T03:46:51.438Z,101231.72
2022-08-25T03:49:22.690Z,101228.53
2022-08-25T03:51:51.665Z,101228.19
2022-08-25T03:54:23.972Z,101226.34
2022-08-25T03:56:51.073Z,101226.19
2022-08-25T03:59:18.263Z,101226.19
2022-08-25T04:01:48.422Z,101218.84
2022-08-25T04:04:18.340Z,101208.78
2022-08-25T04:06:45.168Z,101196.53
2022-08-25T04:09:12.559Z,101199.03
2022-08-25T04:11:39.418Z,101193.41
2022-08-25T04:14:09.597Z,101191.06
2022-08-25T04:16:42.429Z,101186.53
2022-08-25T04:19:10.177Z,101189.38
2022-08-25T04:21:38.974Z,101196.72
2022-08-25T04:24:07.757Z,101200.09
2022-08-25T04:26:37.943Z,101199.28
2022-08-25T04:29:06.937Z,101194.88
2022-08-25T04:31:34.209Z,101198.72
2022-08-25T04:34:29.392Z,101200.88
2022-08-25T04:36:52.860Z,101203.56
2022-08-25T04:39:21.256Z,101205.41
2022-08-25T04:41:48.903Z,101207.09
2022-08-25T04:44:16.475Z,101209.41
2022-08-25T04:46:43.799Z,101204.03
2022-08-25T04:49:10.535Z,101198.53
2022-08-25T04:51:40.369Z,101199.22
2022-08-25T04:54:11.687Z,101199.66
2022-08-25T04:56:40.902Z,101197.50
2022-08-25T04:59:12.433Z,101197.31
2022-08-25T05:01:40.500Z,101197.16
2022-08-25T05:04:09.180Z,101194.91
2022-08-25T05:06:42.171Z,101194.47
2022-08-25T05:09:11.253Z,101190.09
2022-08-25T05:11:39.134Z,101190.63
2022-08-25T05:14:11.432Z,101185.56
2022-08-25T05:16:39.077Z,101180.88
2022-08-25T05:19:07.202Z,101195.59
2022-08-25T05:21:33.835Z,101202.13
2022-08-25T05:24:01.877Z,101194.16
2022-08-25T05:26:31.426Z,101191.84
2022-08-25T05:29:00.535Z,101192.69
2022-08-25T05:31:28.402Z,101181.06
2022-08-25T05:33:55.556Z,101186.78
2022-08-25T05:36:23.201Z,101187.50
2022-08-25T05:38:50.552Z,101192.63
2022-08-25T05:41:20.438Z,101190.53
2022-08-25T05:43:48.996Z,101186.06
2022-08-25T05:46:17.872Z,101180.75
2022-08-25T05:48:44.613Z,101181.50
2022-08-25T05:51:12.698Z,101186.69
2022-08-25T05:53:42.259Z,101180.53
2022-08-25T05:56:09.394Z,101176.56
2022-08-25T05:58:37.180Z,101179.13
2022-08-25T06:01:23.436Z,101178.94
2022-08-25T06:03:54.266Z,101172.06
2022-08-25T06:06:23.393Z,101166.16
2022-08-25T06:08:50.493Z,101168.19
2022-08-25T06:11:17.526Z,101169.00
2022-08-25T06:13:44.187Z,101169.50
2022-08-25T06:16:10.967Z,101177.38
2022-08-25T06:18:37.785Z,101181.03
2022-08-25T06:21:18.597Z,101179.84
2022-08-25T06:23:45.230Z,101173.34
2022-08-25T06:26:20.621Z,101172.81
2022-08-25T06:28:49.071Z,101175.50
2022-08-25T06:31:15.757Z,101180.88
2022-08-25T06:33:43.161Z,101180.88
2022-08-25T06:36:09.936Z,101186.78
2022-08-25T06:38:36.666Z,101187.97
2022-08-25T06:41:05.538Z,101187.75
2022-08-25T06:43:33.230Z,101186.56
2022-08-25T06:46:18.640Z,101191.28
2022-08-25T06:48:45.440Z,101191.28
2022-08-25T06:55:24.074Z,101197.03
2022-08-25T06:57:53.936Z,101197.38
2022-08-25T07:00:23.045Z,101197.88
2022-08-25T07:02:58.485Z,101206.31
2022-08-25T07:05:33.501Z,101197.28
2022-08-25T07:08:07.312Z,101192.75
2022-08-25T07:10:33.881Z,101191.09
2022-08-25T07:13:01.548Z,101182.56
2022-08-25T07:15:28.211Z,101186.44
2022-08-25T07:17:54.814Z,101184.44
2022-08-25T07:22:53.953Z,101188.81
2022-08-25T07:25:20.532Z,101193.38
2022-08-25T07:27:47.176Z,101196.22
2022-08-25T07:30:14.628Z,101198.91
2022-08-25T07:32:41.952Z,101199.19
2022-08-25T07:35:19.195Z,101188.09
2022-08-25T07:37:52.019Z,101197.63
2022-08-25T07:40:29.079Z,101203.00
2022-08-25T07:42:58.856Z,101188.16
2022-08-25T07:45:31.553Z,101196.69
2022-08-25T07:48:05.348Z,101193.91
2022-08-25T07:50:33.162Z,101193.78
2022-08-25T07:53:00.286Z,101195.38
2022-08-25T07:55:28.329Z,101192.84
2022-08-25T07:57:57.303Z,101195.66
2022-08-25T08:00:27.528Z,101197.72
2022-08-25T08:02:54.256Z,101193.72
2022-08-25T08:05:21.323Z,101193.16
2022-08-25T08:07:53.195Z,101196.53
2022-08-25T08:13:10.183Z,101180.06
2022-08-25T08:15:37.941Z,101191.78
2022-08-25T08:18:07.183Z,101180.06
2022-08-25T08:20:42.405Z,101183.56
2022-08-25T08:23:10.660Z,101176.66
2022-08-25T08:25:37.201Z,101168.16
2022-08-25T08:28:04.113Z,101166.22
2022-08-25T08:30:36.365Z,101166.97
2022-08-25T08:33:12.404Z,101167.63
2022-08-25T08:35:42.452Z,101167.28
2022-08-25T08:38:16.209Z,101168.75
2022-08-25T08:41:23.325Z,101158.50
2022-08-25T08:44:01.139Z,101159.06
2022-08-25T08:46:40.773Z,101154.66
2022-08-25T08:49:27.695Z,101151.88
2022-08-25T08:52:01.500Z,101152.03
2022-08-25T08:54:34.983Z,101149.00
2022-08-25T08:57:10.202Z,101139.56
2022-08-25T09:00:00.572Z,101139.97
2022-08-25T09:02:39.113Z,101135.84
2022-08-25T09:05:21.191Z,101131.13
2022-08-25T09:07:54.741Z,101128.22
2022-08-25T09:10:24.214Z,101135.66
2022-08-25T09:13:15.881Z,101125.91
2022-08-25T09:16:22.419Z,101114.41
2022-08-25T09:19:06.926Z,101116.28
2022-08-25T09:22:04.515Z,101112.44
2022-08-25T09:25:08.638Z,101115.56
2022-08-25T09:27:47.245Z,101114.69
2022-08-25T09:30:19.315Z,101120.53
2022-08-25T09:33:02.057Z,101113.81
2022-08-25T09:35:31.833Z,101113.25
2022-08-25T09:38:01.255Z,101106.81
2022-08-25T09:40:31.379Z,101112.13
2022-08-25T09:43:01.148Z,101113.47
2022-08-25T09:45:37.315Z,101103.63
2022-08-25T09:48:24.683Z,101112.00
2022-08-25T09:50:57.249Z,101102.31
2022-08-25T09:53:25.176Z,101109.41
2022-08-25T09:56:10.094Z,101100.09
2022-08-25T09:58:38.225Z,101095.88
2022-08-25T10:01:04.775Z,101095.94
2022-08-25T10:03:36.674Z,101097.81
2022-08-25T10:06:07.545Z,101103.03
2022-08-25T10:08:55.484Z,101097.06
2022-08-25T10:11:33.816Z,101093.09
2022-08-25T10:14:22.115Z,101084.97
2022-08-25T10:16:49.500Z,101082.88
2022-08-25T10:19:30.217Z,101081.44
2022-08-25T10:22:25.766Z,101082.31
2022-08-25T10:24:52.871Z,101081.03
2022-08-25T10:27:31.510Z,101068.09
2022-08-25T10:30:42.829Z,101064.34
2022-08-25T10:33:22.597Z,101067.47
2022-08-25T10:36:09.609Z,101065.38
2022-08-25T10:38:46.114Z,101054.13
2022-08-25T10:41:35.723Z,101045.78
2022-08-25T10:44:46.010Z,101044.72
2022-08-25T10:47:41.601Z,101050.78
2022-08-25T10:50:34.743Z,101054.53
2022-08-25T10:53:01.340Z,101048.69
2022-08-25T10:55:46.679Z,101040.75
2022-08-25T10:58:44.501Z,101030.97
2022-08-25T11:01:43.971Z,101028.03
2022-08-25T11:04:43.698Z,101027.59
2022-08-25T11:07:20.657Z,101021.56
2022-08-25T11:09:51.056Z,101023.22
2022-08-25T11:12:43.601Z,101023.03
2022-08-25T11:15:17.328Z,101013.25
2022-08-25T11:17:55.038Z,101015.94
2022-08-25T11:20:28.340Z,101011.97
2022-08-25T11:23:27.495Z,101012.19
2022-08-25T11:26:01.548Z,101005.72
2022-08-25T11:28:37.323Z,101005.09
2022-08-25T11:31:05.402Z,101013.22
2022-08-25T11:33:33.625Z,101004.88
2022-08-25T11:36:03.025Z,101011.34
2022-08-25T11:38:48.184Z,101005.31
2022-08-25T11:41:37.708Z,101004.91
2022-08-25T11:44:25.046Z,101001.31
2022-08-25T11:47:21.510Z,100996.13
2022-08-25T11:50:25.809Z,100986.09
2022-08-25T11:52:56.510Z,100976.28
2022-08-25T11:55:35.079Z,100988.16
2022-08-25T11:58:33.080Z,100991.53
2022-08-25T12:01:04.895Z,100985.91
2022-08-25T12:03:37.188Z,100981.31
2022-08-25T12:06:27.294Z,100987.53
2022-08-25T12:09:17.901Z,100977.09
2022-08-25T12:11:47.695Z,100984.41
2022-08-25T12:14:22.817Z,100977.75
2022-08-25T12:16:56.160Z,100967.31
2022-08-25T12:19:36.544Z,100967.28
2022-08-25T12:22:04.638Z,100958.28
2022-08-25T12:24:37.266Z,100963.28
2022-08-25T12:27:06.741Z,100960.78
2022-08-25T12:29:52.636Z,100947.22
2022-08-25T12:32:56.151Z,100938.28
2022-08-25T12:35:51.764Z,100945.72
2022-08-25T12:38:43.567Z,100943.25
2022-08-25T12:41:31.532Z,100956.38
2022-08-25T12:44:39.614Z,100945.03
2022-08-25T12:47:29.801Z,100943.13
2022-08-25T12:50:24.421Z,100940.19
2022-08-25T12:52:53.601Z,100940.47
2022-08-25T12:55:21.926Z,100936.47
2022-08-25T12:57:58.577Z,100930.84
2022-08-25T13:03:15.262Z,100940.47
2022-08-25T13:06:28.080Z,100938.44
2022-08-25T13:09:28.524Z,100930.75
2022-08-25T13:12:04.371Z,100928.25
2022-08-25T13:14:39.822Z,100922.44
2022-08-25T13:17:07.098Z,100918.13
2022-08-25T13:19:37.604Z,100915.44
2022-08-25T13:22:16.235Z,100907.28
2022-08-25T13:24:47.564Z,100906.22
2022-08-25T13:27:26.410Z,100906.56
2022-08-25T13:29:56.819Z,100906.56
2022-08-25T13:32:35.336Z,100905.91
2022-08-25T13:35:19.682Z,100900.47
2022-08-25T13:37:46.704Z,100901.16
2022-08-25T13:40:19.650Z,100894.91
2022-08-25T13:42:55.898Z,100897.97
2022-08-25T13:45:28.912Z,100897.69
2022-08-25T13:47:58.692Z,100893.44
2022-08-25T13:50:31.274Z,100890.50
2022-08-25T13:53:04.880Z,100893.03
2022-08-25T13:55:51.696Z,100891.91
2022-08-25T13:58:46.386Z,100884.38
2022-08-25T14:01:49.116Z,100883.16
2022-08-25T14:04:32.403Z,100881.41
2022-08-25T14:07:20.891Z,100876.56
2022-08-25T14:09:58.467Z,100873.28
2022-08-25T14:12:30.802Z,100874.81
2022-08-25T14:15:06.676Z,100867.47
2022-08-25T14:17:39.108Z,100868.81
2022-08-25T14:20:28.883Z,100864.22
2022-08-25T14:22:59.228Z,100862.06
2022-08-25T14:25:28.644Z,100862.63
2022-08-25T14:28:07.307Z,100861.00
2022-08-25T14:30:37.101Z,100857.47
2022-08-25T14:33:05.307Z,100858.28
2022-08-25T14:35:34.273Z,100847.84
2022-08-25T14:38:07.483Z,100854.25
2022-08-25T14:40:35.371Z,100847.09
2022-08-25T14:43:02.116Z,100844.25
2022-08-25T14:45:28.979Z,100842.63
2022-08-25T14:48:02.059Z,100839.56
2022-08-25T14:50:29.863Z,100836.59
2022-08-25T14:52:58.352Z,100840.38
2022-08-25T14:55:32.255Z,100840.72
2022-08-25T14:57:59.920Z,100843.75
2022-08-25T15:00:26.504Z,100846.88
2022-08-25T15:02:55.043Z,100835.34
2022-08-25T15:05:26.981Z,100833.81
2022-08-25T15:08:14.160Z,100836.13
2022-08-25T15:10:41.829Z,100831.06
2022-08-25T15:13:10.588Z,100822.19
2022-08-25T15:15:40.212Z,100827.16
2022-08-25T15:18:20.457Z,100810.16
2022-08-25T15:20:47.120Z,100822.16
2022-08-25T15:23:18.573Z,100820.13
2022-08-25T15:25:52.807Z,100809.78
2022-08-25T15:28:22.290Z,100816.03
2022-08-25T15:30:49.651Z,100810.53
2022-08-25T15:33:16.693Z,100804.34
2022-08-25T15:35:43.699Z,100800.38
2022-08-25T15:38:11.958Z,100808.34
2022-08-25T15:40:39.845Z,100801.84
2022-08-25T15:43:06.921Z,100813.66
2022-08-25T15:45:35.961Z,100805.72
2022-08-25T15:48:03.578Z,100798.16
2022-08-25T15:50:30.396Z,100803.00
2022-08-25T15:52:57.800Z,100799.91
2022-08-25T15:55:24.738Z,100804.97
2022-08-25T15:57:51.371Z,100803.91
2022-08-25T16:00:19.360Z,100804.50
2022-08-25T16:02:48.196Z,100800.13
2022-08-25T16:05:16.419Z,100808.28
2022-08-25T16:07:45.847Z,100800.28
2022-08-25T16:10:13.559Z,100805.28
2022-08-25T16:12:42.615Z,100791.31
2022-08-25T16:15:10.103Z,100799.03
2022-08-25T16:17:40.799Z,100787.38
2022-08-25T16:20:13.949Z,100791.81
2022-08-25T16:22:41.271Z,100798.94
2022-08-25T16:25:08.615Z,100793.84
2022-08-25T16:27:38.610Z,100789.91
2022-08-25T16:30:07.072Z,100790.31
2022-08-25T16:32:33.623Z,100784.66
2022-08-25T16:35:00.649Z,100790.53
2022-08-25T16:37:27.883Z,100787.00
2022-08-25T16:39:55.461Z,100784.72
2022-08-25T16:42:22.273Z,100786.28
2022-08-25T16:44:48.912Z,100782.44
2022-08-25T16:47:25.191Z,100791.63
2022-08-25T16:49:54.026Z,100787.88
2022-08-25T16:52:40.742Z,100787.88
2022-08-25T16:55:13.785Z,100787.38
2022-08-25T16:57:43.969Z,100791.91
2022-08-25T17:00:14.394Z,100786.66
2022-08-25T17:02:42.181Z,100789.28
2022-08-25T17:05:11.517Z,100775.31
2022-08-25T17:07:38.137Z,100781.53
2022-08-25T17:10:05.957Z,100782.72
2022-08-25T17:12:33.127Z,100785.88
2022-08-25T17:15:00.555Z,100785.66
2022-08-25T17:17:27.298Z,100787.56
2022-08-25T17:19:56.446Z,100783.00
2022-08-25T17:22:22.972Z,100779.97
2022-08-25T17:25:00.895Z,100778.22
2022-08-25T17:27:28.152Z,100785.72
2022-08-25T17:29:55.941Z,100782.69
2022-08-25T17:32:30.213Z,100779.19
2022-08-25T17:34:57.392Z,100779.56
2022-08-25T17:37:24.463Z,100791.16
2022-08-25T17:39:54.393Z,100784.38
2022-08-25T17:42:42.817Z,100780.84
2022-08-25T17:45:15.605Z,100788.13
2022-08-25T17:47:42.605Z,100784.84
2022-08-25T17:50:09.825Z,100778.81
2022-08-25T17:52:36.381Z,100783.88
2022-08-25T17:55:03.454Z,100784.31
2022-08-25T17:57:29.991Z,100789.53
2022-08-25T17:59:56.558Z,100788.09
2022-08-25T18:02:23.145Z,100793.13
2022-08-25T18:04:50.094Z,100787.09
2022-08-25T18:07:16.799Z,100799.66
2022-08-25T18:09:44.052Z,100795.50
2022-08-25T18:12:12.051Z,100789.69
2022-08-25T18:14:38.576Z,100790.72
2022-08-25T18:17:05.297Z,100798.88
2022-08-25T18:19:32.918Z,100793.69
2022-08-25T18:22:04.166Z,100794.13
2022-08-25T18:24:31.086Z,100792.03
2022-08-25T18:26:57.732Z,100794.53
2022-08-25T18:29:24.913Z,100801.19
2022-08-25T18:31:53.661Z,100794.53
2022-08-25T18:34:23.966Z,100793.72
2022-08-25T18:36:51.252Z,100801.44
2022-08-25T18:39:37.465Z,100799.97
2022-08-25T18:42:07.468Z,100794.78
2022-08-25T18:44:34.257Z,100794.16
2022-08-25T18:47:00.945Z,100796.22
2022-08-25T18:49:34.813Z,100793.94
2022-08-25T18:52:01.391Z,100803.31
2022-08-25T18:54:28.115Z,100804.78
2022-08-25T18:56:54.755Z,100806.00
2022-08-25T18:59:23.711Z,100803.31
2022-08-25T19:01:52.605Z,100809.09
2022-08-25T19:04:19.702Z,100809.75
2022-08-25T19:06:46.366Z,100797.25
2022-08-25T19:09:13.118Z,100806.81
2022-08-25T19:11:39.740Z,100804.13
2022-08-25T19:14:12.203Z,100814.53
2022-08-25T19:16:41.494Z,100801.63
2022-08-25T19:19:12.595Z,100813.28
2022-08-25T19:21:40.918Z,100821.16
2022-08-25T19:24:09.934Z,100823.97
2022-08-25T19:26:37.272Z,100817.31
2022-08-25T19:29:09.097Z,100819.78
2022-08-25T19:31:36.961Z,100814.56
2022-08-25T19:34:05.195Z,100821.84
2022-08-25T19:36:31.895Z,100819.31
2022-08-25T19:39:00.481Z,100817.63
2022-08-25T19:41:28.961Z,100816.78
2022-08-25T19:43:57.487Z,100808.03
2022-08-25T19:46:32.620Z,100812.75
2022-08-25T19:49:06.882Z,100817.91
2022-08-25T19:51:39.288Z,100815.16
2022-08-25T19:54:08.975Z,100817.28
2022-08-25T19:56:43.662Z,100820.44
2022-08-25T19:59:26.658Z,100814.66
2022-08-25T20:02:01.633Z,100821.69
2022-08-25T20:04:28.628Z,100818.34
2022-08-25T20:06:55.976Z,100826.25
2022-08-25T20:09:39.336Z,100822.28
2022-08-25T20:12:09.223Z,100825.38
2022-08-25T20:14:36.476Z,100829.88
2022-08-25T20:17:03.926Z,100822.19
2022-08-25T20:19:40.919Z,100823.59
2022-08-25T20:22:09.170Z,100829.00
2022-08-25T20:24:51.107Z,100823.59
2022-08-25T20:27:25.960Z,100825.88
2022-08-25T20:29:53.442Z,100829.38
2022-08-25T20:32:20.364Z,100830.44
2022-08-25T20:34:49.028Z,100833.78
2022-08-25T20:37:16.571Z,100825.56
2022-08-25T20:39:43.299Z,100831.75
2022-08-25T20:42:10.218Z,100834.56
2022-08-25T20:44:41.926Z,100829.22
2022-08-25T20:47:10.597Z,100829.75
2022-08-25T20:49:39.480Z,100823.06
2022-08-25T20:52:07.765Z,100823.84
2022-08-25T20:54:34.527Z,100824.84
2022-08-25T20:57:02.476Z,100824.19
2022-08-25T20:59:29.642Z,100822.69
2022-08-25T21:01:56.591Z,100831.47
2022-08-25T21:04:26.630Z,100829.41
2022-08-25T21:06:53.296Z,100835.06
2022-08-25T21:09:22.879Z,100833.00
2022-08-25T21:11:53.148Z,100835.06
2022-08-25T21:14:21.059Z,100834.22
2022-08-25T21:16:48.942Z,100836.75
2022-08-25T21:19:18.223Z,100832.34
2022-08-25T21:21:59.535Z,100830.13
2022-08-25T21:24:28.193Z,100829.28
2022-08-25T21:26:56.387Z,100831.34
2022-08-25T21:29:25.772Z,100827.81
2022-08-25T21:31:56.424Z,100834.03
2022-08-25T21:34:23.229Z,100833.84
2022-08-25T21:36:50.016Z,100832.34
2022-08-25T21:39:17.162Z,100830.50
2022-08-25T21:41:45.514Z,100832.56
2022-08-25T21:44:13.156Z,100837.31
2022-08-25T21:46:40.938Z,100839.81
2022-08-25T21:49:08.546Z,100843.53
2022-08-25T21:51:41.568Z,100846.13
2022-08-25T21:54:15.257Z,100843.34
2022-08-25T21:56:59.333Z,100846.47
2022-08-25T21:59:29.321Z,100846.81
2022-08-25T22:01:57.568Z,100853.88
2022-08-25T22:04:25.221Z,100847.84
2022-08-25T22:06:52.168Z,100848.88
2022-08-25T22:09:19.054Z,100845.06
2022-08-25T22:11:46.300Z,100841.91
2022-08-25T22:14:15.148Z,100844.19
2022-08-25T22:16:42.515Z,100847.41
2022-08-25T22:19:12.377Z,100837.13
2022-08-25T22:21:40.869Z,100845.13
2022-08-25T22:24:07.742Z,100844.00
2022-08-25T22:26:35.841Z,100850.78
2022-08-25T22:29:02.980Z,100849.22
2022-08-25T22:31:32.337Z,100854.31
2022-08-25T22:33:58.906Z,100849.84
2022-08-25T22:36:29.469Z,100846.03
2022-08-25T22:38:57.197Z,100849.09
2022-08-25T22:41:27.036Z,100850.50
2022-08-25T22:43:56.084Z,100856.06
2022-08-25T22:46:23.946Z,100856.22
2022-08-25T22:48:51.621Z,100859.09
2022-08-25T22:51:23.296Z,100860.63
2022-08-25T22:53:50.221Z,100860.22
2022-08-25T22:56:20.881Z,100858.75
2022-08-25T22:58:51.457Z,100882.78
2022-08-25T23:01:20.109Z,100882.25
2022-08-25T23:03:47.611Z,100870.69
2022-08-25T23:06:22.117Z,100881.84
2022-08-25T23:08:53.656Z,100888.97
2022-08-25T23:11:22.051Z,100888.78
2022-08-25T23:13:48.735Z,100879.69
2022-08-25T23:16:15.870Z,100889.25
2022-08-25T23:18:44.684Z,100885.41
2022-08-25T23:21:35.101Z,100886.13
2022-08-25T23:24:05.618Z,100880.16
2022-08-25T23:26:36.309Z,100883.06
2022-08-25T23:29:03.328Z,100886.66
2022-08-25T23:31:44.920Z,100890.84
2022-08-25T23:34:11.640Z,100889.53
2022-08-25T23:36:39.934Z,100883.84
2022-08-25T23:39:07.802Z,100891.25
2022-08-25T23:41:36.904Z,100893.94
2022-08-25T23:44:05.628Z,100880.88
2022-08-25T23:46:34.921Z,100881.84
2022-08-25T23:49:04.052Z,100893.56
2022-08-25T23:51:34.511Z,100895.91
2022-08-25T23:54:05.831Z,100889.06
2022-08-25T23:56:34.418Z,100894.06
2022-08-25T23:59:02.996Z,100889.22
